createdAt,value
2022-12-25T00:00:10.478Z,2.85
2022-12-25T00:03:18.698Z,2.50
2022-12-25T00:06:23.840Z,2.72
2022-12-25T00:09:28.988Z,2.75
2022-12-25T00:12:34.157Z,2.83
2022-12-25T00:15:42.162Z,3.53
2022-12-25T00:18:47.381Z,3.10
2022-12-25T00:21:52.275Z,3.47
2022-12-25T00:24:57.185Z,2.92
2022-12-25T00:28:01.900Z,2.50
2022-12-25T00:31:09.737Z,3.03
2022-12-25T00:34:14.439Z,2.40
2022-12-25T00:37:19.325Z,2.50
2022-12-25T00:40:24.425Z,2.92
2022-12-25T00:43:29.361Z,3.08
2022-12-25T00:46:34.410Z,3.22
2022-12-25T00:49:39.527Z,2.60
2022-12-25T00:52:44.435Z,2.90
2022-12-25T00:55:54.960Z,2.55
2022-12-25T00:58:59.690Z,2.75
2022-12-25T01:02:22.942Z,2.70
2022-12-25T01:05:27.729Z,2.50
2022-12-25T01:08:36.899Z,3.03
2022-12-25T01:11:43.330Z,2.25
2022-12-25T01:14:48.531Z,2.17
2022-12-25T01:17:53.727Z,2.50
2022-12-25T01:20:58.673Z,2.05
2022-12-25T01:24:03.649Z,2.40
2022-12-25T01:27:08.974Z,2.13
2022-12-25T01:30:13.999Z,2.17
2022-12-25T01:33:19.568Z,2.83
2022-12-25T01:36:26.010Z,2.20
2022-12-25T01:39:31.671Z,2.50
2022-12-25T01:42:36.876Z,2.50
2022-12-25T01:45:44.307Z,2.17
2022-12-25T01:48:50.053Z,2.10
2022-12-25T01:52:12.341Z,2.40
2022-12-25T01:55:17.287Z,2.00
2022-12-25T01:58:22.373Z,2.30
2022-12-25T02:01:27.102Z,2.75
2022-12-25T02:04:40.218Z,2.72
2022-12-25T02:07:46.755Z,2.63
2022-12-25T02:10:51.556Z,2.70
2022-12-25T02:13:56.502Z,2.60
2022-12-25T02:17:15.746Z,2.40
2022-12-25T02:20:51.411Z,2.88
2022-12-25T02:24:17.652Z,2.83
2022-12-25T02:27:50.869Z,2.85
2022-12-25T02:31:04.283Z,3.40
2022-12-25T02:34:44.645Z,2.90
2022-12-25T02:38:16.531Z,3.13
2022-12-25T02:41:21.714Z,2.83
2022-12-25T02:44:46.122Z,3.00
2022-12-25T02:48:09.252Z,3.10
2022-12-25T02:51:35.012Z,3.13
2022-12-25T02:55:07.108Z,2.90
2022-12-25T02:58:36.771Z,3.05
2022-12-25T03:02:00.440Z,2.88
2022-12-25T03:05:26.628Z,2.95
2022-12-25T03:08:40.078Z,2.65
2022-12-25T03:11:46.463Z,2.55
2022-12-25T03:15:09.873Z,3.33
2022-12-25T03:18:18.390Z,2.75
2022-12-25T03:21:41.972Z,2.47
2022-12-25T03:25:21.908Z,2.80
2022-12-25T03:28:27.399Z,3.20
2022-12-25T03:31:56.972Z,2.50
2022-12-25T03:35:23.692Z,3.00
2022-12-25T03:38:47.843Z,2.50
2022-12-25T03:42:17.783Z,2.70
2022-12-25T03:45:50.393Z,2.83
2022-12-25T03:49:21.573Z,2.80
2022-12-25T03:52:45.509Z,2.65
2022-12-25T03:56:09.688Z,2.63
2022-12-25T03:59:36.692Z,2.72
2022-12-25T04:03:00.122Z,2.63
2022-12-25T04:06:24.066Z,3.08
2022-12-25T04:09:47.513Z,2.65
2022-12-25T04:13:10.823Z,2.47
2022-12-25T04:16:34.235Z,2.20
2022-12-25T04:19:57.635Z,2.35
2022-12-25T04:23:21.477Z,2.85
2022-12-25T04:26:44.931Z,2.60
2022-12-25T04:30:08.101Z,2.45
2022-12-25T04:33:31.811Z,3.13
2022-12-25T04:36:36.680Z,2.70
2022-12-25T04:39:41.587Z,2.80
2022-12-25T04:42:46.438Z,3.10
2022-12-25T04:45:56.113Z,2.58
2022-12-25T04:49:01.060Z,2.83
2022-12-25T04:52:05.874Z,2.50
2022-12-25T04:55:11.519Z,2.88
2022-12-25T04:58:16.324Z,3.00
2022-12-25T05:01:21.193Z,2.72
2022-12-25T05:04:26.195Z,2.65
2022-12-25T05:07:31.458Z,3.42
2022-12-25T05:10:40.247Z,2.97
2022-12-25T05:13:45.476Z,3.13
2022-12-25T05:16:50.530Z,2.50
2022-12-25T05:19:55.226Z,2.65
2022-12-25T05:23:00.050Z,2.35
2022-12-25T05:26:08.204Z,2.17
2022-12-25T05:29:13.441Z,2.33
2022-12-25T05:32:18.374Z,2.47
2022-12-25T05:35:23.365Z,2.20
2022-12-25T05:38:28.100Z,2.13
2022-12-25T05:41:34.613Z,2.20
2022-12-25T05:44:39.868Z,2.30
2022-12-25T05:47:44.719Z,2.58
2022-12-25T05:50:49.886Z,2.30
2022-12-25T05:53:54.545Z,2.53
2022-12-25T05:56:59.456Z,2.03
2022-12-25T06:00:06.124Z,2.60
2022-12-25T06:03:17.709Z,2.00
2022-12-25T06:06:22.568Z,2.33
2022-12-25T06:09:27.419Z,2.38
2022-12-25T06:12:32.181Z,1.80
2022-12-25T06:15:41.726Z,2.10
2022-12-25T06:18:51.771Z,2.10
2022-12-25T06:21:56.707Z,2.50
2022-12-25T06:25:01.755Z,1.98
2022-12-25T06:28:07.439Z,2.03
2022-12-25T06:31:21.780Z,2.00
2022-12-25T06:34:27.101Z,2.58
2022-12-25T06:37:32.092Z,3.30
2022-12-25T06:40:37.098Z,3.70
2022-12-25T06:43:42.131Z,3.28
2022-12-25T06:46:47.349Z,3.17
2022-12-25T06:49:52.395Z,3.35
2022-12-25T06:52:57.297Z,3.22
2022-12-25T06:56:06.994Z,3.53
2022-12-25T06:59:11.988Z,3.35
2022-12-25T07:02:20.891Z,2.92
2022-12-25T07:05:25.784Z,2.45
2022-12-25T07:08:30.774Z,2.50
2022-12-25T07:11:36.417Z,2.65
2022-12-25T07:14:41.924Z,2.95
2022-12-25T07:17:47.057Z,3.33
2022-12-25T07:20:52.015Z,3.10
2022-12-25T07:23:56.851Z,3.22
2022-12-25T07:27:01.692Z,2.58
2022-12-25T07:30:07.469Z,2.50
2022-12-25T07:33:12.261Z,2.60
2022-12-25T07:36:17.288Z,2.63
2022-12-25T07:39:23.628Z,3.28
2022-12-25T07:42:28.568Z,2.60
2022-12-25T07:45:33.462Z,2.67
2022-12-25T07:48:38.190Z,2.67
2022-12-25T07:51:42.928Z,2.60
2022-12-25T07:54:47.865Z,3.45
2022-12-25T07:57:53.222Z,3.67
2022-12-25T08:01:08.144Z,3.85
2022-12-25T08:04:13.007Z,3.95
2022-12-25T08:07:17.995Z,4.20
2022-12-25T08:10:23.010Z,4.07
2022-12-25T08:13:31.793Z,3.92
2022-12-25T08:16:41.420Z,3.33
2022-12-25T08:19:46.447Z,3.55
2022-12-25T08:22:51.440Z,3.72
2022-12-25T08:26:05.011Z,3.13
2022-12-25T08:29:10.638Z,3.13
2022-12-25T08:32:15.642Z,3.00
2022-12-25T08:35:20.588Z,3.28
2022-12-25T08:38:25.526Z,2.65
2022-12-25T08:41:31.749Z,3.25
2022-12-25T08:44:36.682Z,3.05
2022-12-25T08:47:41.286Z,2.97
2022-12-25T08:50:50.803Z,3.13
2022-12-25T08:54:00.299Z,2.95
2022-12-25T08:57:05.895Z,3.58
2022-12-25T09:00:11.493Z,3.08
2022-12-25T09:03:16.732Z,3.40
2022-12-25T09:06:21.797Z,3.20
2022-12-25T09:09:28.388Z,2.85
2022-12-25T09:12:33.608Z,2.92
2022-12-25T09:15:39.845Z,2.90
2022-12-25T09:18:45.057Z,3.45
2022-12-25T09:21:50.142Z,3.05
2022-12-25T09:24:54.877Z,3.45
2022-12-25T09:27:59.754Z,3.20
2022-12-25T09:31:04.761Z,3.45
2022-12-25T09:34:15.424Z,4.13
2022-12-25T09:37:22.132Z,4.70
2022-12-25T09:40:31.063Z,4.95
2022-12-25T09:43:51.565Z,4.68
2022-12-25T09:47:02.839Z,4.30
2022-12-25T09:50:28.743Z,3.60
2022-12-25T09:53:44.341Z,3.30
2022-12-25T09:56:49.558Z,3.40
2022-12-25T09:59:55.974Z,3.33
2022-12-25T10:03:48.937Z,3.60
2022-12-25T10:07:23.661Z,4.60
2022-12-25T10:10:52.939Z,5.25
2022-12-25T10:14:36.703Z,4.95
2022-12-25T10:18:03.418Z,4.55
2022-12-25T10:21:14.203Z,6.32
2022-12-25T10:24:35.643Z,4.10
2022-12-25T10:27:42.952Z,4.03
2022-12-25T10:30:49.188Z,4.05
2022-12-25T10:33:54.623Z,4.55
2022-12-25T10:36:59.855Z,4.88
2022-12-25T10:40:24.857Z,5.50
2022-12-25T10:43:39.486Z,4.20
2022-12-25T10:46:52.830Z,4.90
2022-12-25T10:49:58.315Z,4.20
2022-12-25T10:53:05.845Z,4.40
2022-12-25T10:56:17.726Z,3.05
2022-12-25T10:59:28.046Z,3.08
2022-12-25T11:02:40.038Z,3.22
2022-12-25T11:05:50.611Z,3.40
2022-12-25T11:08:58.766Z,3.00
2022-12-25T11:12:04.277Z,3.35
2022-12-25T11:15:44.215Z,2.85
2022-12-25T11:18:53.025Z,2.70
2022-12-25T11:22:01.233Z,2.53
2022-12-25T11:25:14.694Z,2.95
2022-12-25T11:28:19.760Z,3.53
2022-12-25T11:31:37.290Z,3.42
2022-12-25T11:34:48.642Z,3.08
2022-12-25T11:37:54.150Z,3.20
2022-12-25T11:41:01.504Z,3.30
2022-12-25T11:44:37.499Z,2.90
2022-12-25T11:47:56.368Z,2.90
2022-12-25T11:51:02.966Z,3.08
2022-12-25T11:54:10.584Z,3.28
2022-12-25T11:57:15.477Z,3.42
2022-12-25T12:00:21.123Z,2.92
2022-12-25T12:03:40.552Z,2.85
2022-12-25T12:06:49.907Z,3.20
2022-12-25T12:10:15.165Z,3.15
2022-12-25T12:13:41.883Z,3.25
2022-12-25T12:16:46.631Z,3.13
2022-12-25T12:19:52.596Z,2.70
2022-12-25T12:23:00.116Z,3.10
2022-12-25T12:26:05.375Z,2.83
2022-12-25T12:29:28.187Z,2.72
2022-12-25T12:32:46.455Z,2.85
2022-12-25T12:35:51.564Z,3.70
2022-12-25T12:38:58.091Z,3.42
2022-12-25T12:42:14.262Z,3.42
2022-12-25T12:45:27.103Z,3.20
2022-12-25T12:48:40.851Z,3.42
2022-12-25T12:51:46.290Z,3.58
2022-12-25T12:55:02.257Z,3.72
2022-12-25T12:58:07.325Z,2.92
2022-12-25T13:01:26.553Z,3.90
2022-12-25T13:04:34.613Z,2.70
2022-12-25T13:07:48.205Z,2.72
2022-12-25T13:11:22.267Z,3.00
2022-12-25T13:14:27.609Z,4.43
2022-12-25T13:17:32.613Z,4.18
2022-12-25T13:20:58.162Z,3.97
2022-12-25T13:24:10.535Z,3.30
2022-12-25T13:27:28.199Z,3.70
2022-12-25T13:30:33.026Z,3.60
2022-12-25T13:33:37.969Z,3.53
2022-12-25T13:36:43.423Z,3.47
2022-12-25T13:39:55.301Z,3.85
2022-12-25T13:43:01.125Z,5.13
2022-12-25T13:46:06.510Z,5.30
2022-12-25T13:49:20.941Z,4.78
2022-12-25T13:52:36.044Z,4.50
2022-12-25T13:55:42.473Z,4.85
2022-12-25T13:58:48.455Z,4.60
2022-12-25T14:01:57.799Z,5.28
2022-12-25T14:05:19.622Z,4.57
2022-12-25T14:08:28.310Z,5.10
2022-12-25T14:11:33.392Z,4.88
2022-12-25T14:14:38.686Z,3.88
2022-12-25T14:17:44.000Z,4.63
2022-12-25T14:21:31.604Z,4.68
2022-12-25T14:24:37.757Z,4.38
2022-12-25T14:27:51.856Z,4.20
2022-12-25T14:30:57.065Z,3.83
2022-12-25T14:34:03.670Z,3.15
2022-12-25T14:37:17.138Z,3.92
2022-12-25T14:40:31.367Z,3.65
2022-12-25T14:43:36.742Z,4.18
2022-12-25T14:46:41.775Z,3.70
2022-12-25T14:49:47.692Z,3.92
2022-12-25T14:52:53.077Z,4.88
2022-12-25T14:55:58.205Z,4.55
2022-12-25T14:59:03.533Z,5.18
2022-12-25T15:02:17.977Z,5.18
2022-12-25T15:05:36.853Z,5.10
2022-12-25T15:08:41.685Z,4.85
2022-12-25T15:11:55.831Z,4.68
2022-12-25T15:15:00.838Z,4.53
2022-12-25T15:18:05.626Z,4.72
2022-12-25T15:21:22.922Z,5.05
2022-12-25T15:24:28.188Z,4.53
2022-12-25T15:27:33.628Z,4.65
2022-12-25T15:30:41.842Z,4.43
2022-12-25T15:33:47.042Z,4.97
2022-12-25T15:36:52.935Z,5.03
2022-12-25T15:39:57.711Z,6.60
2022-12-25T15:43:06.451Z,11.10
2022-12-25T15:46:15.977Z,9.25
2022-12-25T15:49:20.956Z,7.35
2022-12-25T15:52:25.926Z,5.82
2022-12-25T15:55:31.045Z,10.23
2022-12-25T15:58:35.863Z,32.08
2022-12-25T16:01:48.094Z,9.68
2022-12-25T16:04:54.996Z,6.18
2022-12-25T16:08:00.187Z,5.38
2022-12-25T16:11:05.809Z,5.80
2022-12-25T16:14:11.416Z,6.18
2022-12-25T16:17:16.759Z,6.65
2022-12-25T16:20:21.910Z,6.72
2022-12-25T16:23:26.644Z,6.88
2022-12-25T16:26:33.184Z,5.68
2022-12-25T16:29:38.313Z,3.53
2022-12-25T16:32:45.245Z,3.55
2022-12-25T16:35:51.901Z,3.40
2022-12-25T16:38:57.123Z,3.13
2022-12-25T16:42:02.444Z,4.70
2022-12-25T16:45:08.074Z,5.07
2022-12-25T16:48:13.713Z,4.63
2022-12-25T16:51:20.556Z,4.22
2022-12-25T16:54:25.055Z,4.20
2022-12-25T16:57:32.491Z,4.05
2022-12-25T17:00:37.798Z,4.60
2022-12-25T17:03:43.216Z,8.45
2022-12-25T17:06:48.732Z,6.70
2022-12-25T17:09:53.959Z,7.10
2022-12-25T17:12:58.620Z,7.93
2022-12-25T17:16:19.974Z,7.25
2022-12-25T17:19:24.946Z,16.17
2022-12-25T17:22:30.287Z,15.50
2022-12-25T17:25:35.466Z,11.20
2022-12-25T17:28:40.700Z,17.13
2022-12-25T17:31:45.805Z,8.23
2022-12-25T17:34:50.673Z,11.20
2022-12-25T17:37:55.421Z,10.68
2022-12-25T17:41:02.300Z,10.70
2022-12-25T17:44:07.085Z,12.45
2022-12-25T17:47:11.916Z,11.20
2022-12-25T17:50:17.359Z,9.80
2022-12-25T17:53:22.182Z,13.40
2022-12-25T17:56:27.101Z,9.27
2022-12-25T17:59:31.871Z,8.05
2022-12-25T18:02:38.044Z,13.70
2022-12-25T18:05:43.368Z,5.75
2022-12-25T18:08:49.451Z,23.77
2022-12-25T18:11:54.648Z,31.20
2022-12-25T18:15:00.002Z,13.27
2022-12-25T18:18:05.420Z,7.13
2022-12-25T18:21:10.163Z,5.50
2022-12-25T18:24:15.213Z,5.57
2022-12-25T18:27:20.375Z,5.57
2022-12-25T18:30:25.667Z,5.45
2022-12-25T18:33:30.826Z,4.65
2022-12-25T18:36:36.842Z,5.00
2022-12-25T18:39:42.032Z,4.28
2022-12-25T18:42:52.280Z,4.00
2022-12-25T18:46:01.141Z,4.70
2022-12-25T18:49:06.007Z,3.90
2022-12-25T18:52:50.129Z,3.83
2022-12-25T18:55:36.183Z,3.85
2022-12-25T18:58:42.027Z,4.32
2022-12-25T19:01:46.884Z,3.95
2022-12-25T19:04:52.513Z,3.80
2022-12-25T19:07:57.309Z,3.15
2022-12-25T19:11:07.364Z,3.50
2022-12-25T19:14:12.304Z,3.50
2022-12-25T19:17:18.005Z,3.53
2022-12-25T19:20:23.160Z,3.38
2022-12-25T19:23:28.114Z,3.47
2022-12-25T19:26:33.360Z,3.70
2022-12-25T19:29:38.441Z,4.18
2022-12-25T19:32:43.681Z,3.70
2022-12-25T19:35:49.651Z,3.60
2022-12-25T19:38:54.579Z,3.60
2022-12-25T19:41:59.416Z,4.05
2022-12-25T19:45:05.873Z,4.22
2022-12-25T19:48:10.602Z,3.65
2022-12-25T19:51:26.476Z,3.63
2022-12-25T19:54:31.582Z,3.42
2022-12-25T19:57:36.973Z,3.80
2022-12-25T20:00:42.151Z,3.78
2022-12-25T20:03:47.962Z,4.15
2022-12-25T20:06:52.930Z,4.70
2022-12-25T20:09:57.880Z,5.05
2022-12-25T20:13:02.604Z,6.15
2022-12-25T20:16:10.033Z,4.03
2022-12-25T20:19:15.412Z,4.03
2022-12-25T20:22:20.548Z,3.88
2022-12-25T20:25:25.483Z,3.58
2022-12-25T20:28:34.404Z,3.92
2022-12-25T20:31:39.805Z,3.30
2022-12-25T20:34:44.840Z,3.72
2022-12-25T20:37:50.005Z,3.22
2022-12-25T20:44:30.120Z,3.88
2022-12-25T20:47:35.469Z,3.97
2022-12-25T20:50:40.781Z,3.92
2022-12-25T20:53:46.337Z,3.60
2022-12-25T20:56:51.251Z,3.45
2022-12-25T20:59:56.377Z,3.20
2022-12-25T21:03:01.282Z,3.33
2022-12-25T21:06:07.983Z,3.33
2022-12-25T21:09:13.290Z,3.65
2022-12-25T21:12:18.261Z,2.38
2022-12-25T21:15:24.553Z,2.78
2022-12-25T21:18:29.452Z,2.53
2022-12-25T21:21:35.987Z,2.70
2022-12-25T21:24:40.809Z,2.70
2022-12-25T21:27:46.701Z,2.70
2022-12-25T21:30:51.871Z,2.63
2022-12-25T21:33:57.705Z,3.00
2022-12-25T21:37:03.076Z,2.38
2022-12-25T21:40:14.419Z,2.92
2022-12-25T21:43:21.167Z,2.67
2022-12-25T21:46:26.690Z,2.40
2022-12-25T21:49:50.341Z,2.63
2022-12-25T21:52:55.186Z,2.78
2022-12-25T21:56:02.473Z,2.72
2022-12-25T21:59:08.999Z,3.20
2022-12-25T22:02:13.864Z,2.08
2022-12-25T22:05:37.471Z,2.67
2022-12-25T22:08:42.494Z,2.95
2022-12-25T22:12:06.340Z,2.53
2022-12-25T22:15:11.994Z,2.70
2022-12-25T22:18:35.652Z,2.80
2022-12-25T22:21:40.330Z,2.95
2022-12-25T22:24:45.188Z,3.28
2022-12-25T22:27:50.717Z,2.80
2022-12-25T22:30:55.493Z,3.15
2022-12-25T22:34:00.460Z,3.10
2022-12-25T22:37:06.415Z,3.03
2022-12-25T22:40:17.051Z,3.10
2022-12-25T22:43:22.557Z,2.85
2022-12-25T22:46:27.415Z,3.00
2022-12-25T22:49:32.178Z,3.30
2022-12-25T22:52:38.052Z,3.35
2022-12-25T22:55:47.519Z,2.97
2022-12-25T22:58:52.673Z,2.92
2022-12-25T23:01:57.741Z,2.90
2022-12-25T23:05:05.146Z,3.55
2022-12-25T23:08:10.092Z,2.90
2022-12-25T23:11:16.173Z,2.85
2022-12-25T23:14:39.407Z,2.70
2022-12-25T23:18:03.307Z,3.35
2022-12-25T23:21:28.919Z,2.80
2022-12-25T23:24:52.254Z,3.00
2022-12-25T23:27:57.235Z,2.58
2022-12-25T23:31:02.072Z,3.35
2022-12-25T23:34:07.660Z,3.20
2022-12-25T23:37:12.590Z,3.00
2022-12-25T23:40:17.519Z,2.97
2022-12-25T23:43:22.682Z,2.83
2022-12-25T23:46:27.480Z,2.88
2022-12-25T23:49:32.240Z,3.20
2022-12-25T23:52:37.129Z,2.90
2022-12-25T23:55:42.693Z,2.97
2022-12-25T23:58:51.958Z,3.03
